sensor_id;sensor_type;location;lat;lon;timestamp;P1;P2;P0
58740;PMS7003;44512;53.046;18.604;2022-08-24T00:07:50;17;16;11
58740;PMS7003;44512;53.046;18.604;2022-08-24T00:18:18;18;16;12
58740;PMS7003;44512;53.046;18.604;2022-08-24T00:28:46;21;18;12
58740;PMS7003;44512;53.046;18.604;2022-08-24T00:39:15;21;16;11
58740;PMS7003;44512;53.046;18.604;2022-08-24T00:49:50;18;15;11
58740;PMS7003;44512;53.046;18.604;2022-08-24T01:10:44;15;15;10
58740;PMS7003;44512;53.046;18.604;2022-08-24T01:31:36;16;13;9
58740;PMS7003;44512;53.046;18.604;2022-08-24T01:42:05;12;10;7
58740;PMS7003;44512;53.046;18.604;2022-08-24T01:52:33;13;10;8
58740;PMS7003;44512;53.046;18.604;2022-08-24T02:03:02;13;10;6
58740;PMS7003;44512;53.046;18.604;2022-08-24T02:13:30;12;10;8
58740;PMS7003;44512;53.046;18.604;2022-08-24T02:23:58;12;11;8
58740;PMS7003;44512;53.046;18.604;2022-08-24T02:34:26;12;11;8
58740;PMS7003;44512;53.046;18.604;2022-08-24T02:44:55;10;10;7
58740;PMS7003;44512;53.046;18.604;2022-08-24T02:55:23;10;9;7
58740;PMS7003;44512;53.046;18.604;2022-08-24T03:05:51;13;11;8
58740;PMS7003;44512;53.046;18.604;2022-08-24T03:16:20;11;10;8
58740;PMS7003;44512;53.046;18.604;2022-08-24T03:26:49;12;11;8
58740;PMS7003;44512;53.046;18.604;2022-08-24T03:37:16;12;10;8
58740;PMS7003;44512;53.046;18.604;2022-08-24T03:47:45;11;10;8
58740;PMS7003;44512;53.046;18.604;2022-08-24T03:58:13;13;11;7
58740;PMS7003;44512;53.046;18.604;2022-08-24T04:08:42;14;12;9
58740;PMS7003;44512;53.046;18.604;2022-08-24T04:19:10;13;11;8
58740;PMS7003;44512;53.046;18.604;2022-08-24T04:29:39;11;10;7
58740;PMS7003;44512;53.046;18.604;2022-08-24T04:40:07;12;10;7
58740;PMS7003;44512;53.046;18.604;2022-08-24T04:50:36;11;11;8
58740;PMS7003;44512;53.046;18.604;2022-08-24T05:01:07;12;11;9
58740;PMS7003;44512;53.046;18.604;2022-08-24T05:11:33;15;13;11
58740;PMS7003;44512;53.046;18.604;2022-08-24T05:22:00;17;15;10
58740;PMS7003;44512;53.046;18.604;2022-08-24T05:32:29;15;14;10
58740;PMS7003;44512;53.046;18.604;2022-08-24T05:42:57;16;14;10
58740;PMS7003;44512;53.046;18.604;2022-08-24T05:53:25;17;15;11
58740;PMS7003;44512;53.046;18.604;2022-08-24T06:03:54;18;16;12
58740;PMS7003;44512;53.046;18.604;2022-08-24T06:14:22;21;20;14
58740;PMS7003;44512;53.046;18.604;2022-08-24T06:24:50;19;17;12
58740;PMS7003;44512;53.046;18.604;2022-08-24T06:35:18;14;14;10
58740;PMS7003;44512;53.046;18.604;2022-08-24T06:45:47;19;17;12
58740;PMS7003;44512;53.046;18.604;2022-08-24T06:56:15;24;21;14
58740;PMS7003;44512;53.046;18.604;2022-08-24T07:06:44;21;18;13
58740;PMS7003;44512;53.046;18.604;2022-08-24T07:17:12;23;20;15
58740;PMS7003;44512;53.046;18.604;2022-08-24T07:27:40;19;18;14
58740;PMS7003;44512;53.046;18.604;2022-08-24T07:38:10;19;16;13
58740;PMS7003;44512;53.046;18.604;2022-08-24T07:48:37;23;19;14
58740;PMS7003;44512;53.046;18.604;2022-08-24T07:59:05;22;20;14
58740;PMS7003;44512;53.046;18.604;2022-08-24T08:09:37;21;19;14
58740;PMS7003;44512;53.046;18.604;2022-08-24T08:20:04;27;21;14
58740;PMS7003;44512;53.046;18.604;2022-08-24T08:30:31;27;22;17
58740;PMS7003;44512;53.046;18.604;2022-08-24T08:41:10;29;22;15
58740;PMS7003;44512;53.046;18.604;2022-08-24T09:33:21;26;24;16
58740;PMS7003;44512;53.046;18.604;2022-08-24T10:25:48;18;15;11
58740;PMS7003;44512;53.046;18.604;2022-08-24T11:12:53;15;13;10
58740;PMS7003;44512;53.046;18.604;2022-08-24T11:23:23;14;13;11
58740;PMS7003;44512;53.046;18.604;2022-08-24T11:33:50;11;11;9
58740;PMS7003;44512;53.046;18.604;2022-08-24T11:44:22;14;12;9
58740;PMS7003;44512;53.046;18.604;2022-08-24T12:26:13;13;11;9
58740;PMS7003;44512;53.046;18.604;2022-08-24T12:36:51;9;9;8
58740;PMS7003;44512;53.046;18.604;2022-08-24T12:47:08;10;9;7
58740;PMS7003;44512;53.046;18.604;2022-08-24T13:29:01;11;11;9
58740;PMS7003;44512;53.046;18.604;2022-08-24T13:50:03;12;11;9
58740;PMS7003;44512;53.046;18.604;2022-08-24T14:21:23;13;12;10
58740;PMS7003;44512;53.046;18.604;2022-08-24T14:42:20;10;10;8
58740;PMS7003;44512;53.046;18.604;2022-08-24T15:13:49;10;9;7
58740;PMS7003;44512;53.046;18.604;2022-08-24T15:45:10;8;7;6
58740;PMS7003;44512;53.046;18.604;2022-08-24T15:55:41;7;6;5
58740;PMS7003;44512;53.046;18.604;2022-08-24T16:16:38;7;6;5
58740;PMS7003;44512;53.046;18.604;2022-08-24T16:27:04;11;9;7
58740;PMS7003;44512;53.046;18.604;2022-08-24T16:37:31;7;5;4
58740;PMS7003;44512;53.046;18.604;2022-08-24T16:48:00;6;6;5
58740;PMS7003;44512;53.046;18.604;2022-08-24T16:58:29;6;6;4
58740;PMS7003;44512;53.046;18.604;2022-08-24T17:08:56;5;5;4
58740;PMS7003;44512;53.046;18.604;2022-08-24T17:19:24;8;5;4
58740;PMS7003;44512;53.046;18.604;2022-08-24T17:29:52;6;6;5
58740;PMS7003;44512;53.046;18.604;2022-08-24T17:40:22;8;5;5
58740;PMS7003;44512;53.046;18.604;2022-08-24T17:50:50;7;6;5
58740;PMS7003;44512;53.046;18.604;2022-08-24T18:01:17;8;6;5
58740;PMS7003;44512;53.046;18.604;2022-08-24T18:11:46;9;6;5
58740;PMS7003;44512;53.046;18.604;2022-08-24T18:22:14;8;7;6
58740;PMS7003;44512;53.046;18.604;2022-08-24T18:32:42;10;9;7
58740;PMS7003;44512;53.046;18.604;2022-08-24T18:43:11;8;7;6
58740;PMS7003;44512;53.046;18.604;2022-08-24T18:53:39;9;7;6
58740;PMS7003;44512;53.046;18.604;2022-08-24T19:04:07;8;7;6
58740;PMS7003;44512;53.046;18.604;2022-08-24T19:14:36;7;7;5
58740;PMS7003;44512;53.046;18.604;2022-08-24T19:25:04;9;8;7
58740;PMS7003;44512;53.046;18.604;2022-08-24T19:35:33;9;9;7
58740;PMS7003;44512;53.046;18.604;2022-08-24T19:46:01;7;6;5
58740;PMS7003;44512;53.046;18.604;2022-08-24T19:56:29;6;6;4
58740;PMS7003;44512;53.046;18.604;2022-08-24T20:06:57;7;6;5
58740;PMS7003;44512;53.046;18.604;2022-08-24T20:17:26;6;5;4
58740;PMS7003;44512;53.046;18.604;2022-08-24T20:27:54;6;6;5
58740;PMS7003;44512;53.046;18.604;2022-08-24T20:38:22;7;6;5
58740;PMS7003;44512;53.046;18.604;2022-08-24T20:48:51;10;7;6
58740;PMS7003;44512;53.046;18.604;2022-08-24T20:59:19;7;7;6
58740;PMS7003;44512;53.046;18.604;2022-08-24T21:09:47;9;9;7
58740;PMS7003;44512;53.046;18.604;2022-08-24T21:20:16;8;7;6
58740;PMS7003;44512;53.046;18.604;2022-08-24T21:30:44;7;7;6
58740;PMS7003;44512;53.046;18.604;2022-08-24T21:41:12;8;8;6
58740;PMS7003;44512;53.046;18.604;2022-08-24T21:51:40;8;8;6
58740;PMS7003;44512;53.046;18.604;2022-08-24T22:02:09;8;7;7
58740;PMS7003;44512;53.046;18.604;2022-08-24T22:12:40;8;7;6
58740;PMS7003;44512;53.046;18.604;2022-08-24T22:23:05;10;8;7
58740;PMS7003;44512;53.046;18.604;2022-08-24T22:33:34;9;7;6
58740;PMS7003;44512;53.046;18.604;2022-08-24T22:44:02;11;8;7
58740;PMS7003;44512;53.046;18.604;2022-08-24T22:54:31;10;7;6
58740;PMS7003;44512;53.046;18.604;2022-08-24T23:04:59;14;9;8
58740;PMS7003;44512;53.046;18.604;2022-08-24T23:15:27;10;9;8
58740;PMS7003;44512;53.046;18.604;2022-08-24T23:25:55;11;8;7
58740;PMS7003;44512;53.046;18.604;2022-08-24T23:36:24;10;8;6
58740;PMS7003;44512;53.046;18.604;2022-08-24T23:46:52;12;8;7
58740;PMS7003;44512;53.046;18.604;2022-08-24T23:57:20;11;9;7
